NOZ1HD LIEO-ENGM
Flight info
| Callsign | NOZ1HD |
|---|---|
| Flight time | N/A |
| Altitude | 34000 |
| Route | OLBEK DCT IBROS DCT BRENO DCT KONIN DCT EXITI DCT MEGAR DCT SABAK L997 REGMA DCT LUNIP |
| Aircraft | B738/M-SDE2E3FGHIRWXY/LB1 |
Departure
| Time | N/A |
|---|---|
| Airport | Olbia Costa Smeralda Airport (LIEO) |
Arrival
| Time | 2026-05-07 21:01 |
|---|---|
| Airport | Oslo-Gardermoen International Airport (ENGM) |
| Time | Latitude | Longitude | Altitude | Speed | Heading |
|---|---|---|---|---|---|
| 2026-05-07 21:01 | 60.18096 | 11.11013 | 681 ft | 38 kts | 223° |
| 2026-05-07 21:01 | 60.18061 | 11.10653 | 675 ft | 27 kts | 287° |
| 2026-05-07 21:01 | 60.18131 | 11.10538 | 678 ft | 13 kts | 11° |
| 2026-05-07 21:02 | 60.18223 | 11.10584 | 679 ft | 14 kts | 18° |
| 2026-05-07 21:02 | 60.18326 | 11.10650 | 680 ft | 17 kts | 17° |
| 2026-05-07 21:02 | 60.18446 | 11.10717 | 680 ft | 19 kts | 17° |
| 2026-05-07 21:02 | 60.18580 | 11.10796 | 681 ft | 21 kts | 16° |
| 2026-05-07 21:03 | 60.18717 | 11.10876 | 678 ft | 20 kts | 16° |
| 2026-05-07 21:03 | 60.18850 | 11.10954 | 682 ft | 20 kts | 16° |
| 2026-05-07 21:03 | 60.18980 | 11.11023 | 678 ft | 19 kts | 14° |
| 2026-05-07 21:03 | 60.19104 | 11.11098 | 681 ft | 18 kts | 17° |
| 2026-05-07 21:04 | 60.19225 | 11.11169 | 683 ft | 18 kts | 15° |
| 2026-05-07 21:04 | 60.19341 | 11.11235 | 680 ft | 17 kts | 15° |
| 2026-05-07 21:04 | 60.19458 | 11.11300 | 679 ft | 18 kts | 15° |
| 2026-05-07 21:04 | 60.19578 | 11.11372 | 680 ft | 18 kts | 17° |
| 2026-05-07 21:05 | 60.19695 | 11.11440 | 678 ft | 17 kts | 16° |
| 2026-05-07 21:05 | 60.19783 | 11.11328 | 681 ft | 17 kts | 294° |
| 2026-05-07 21:05 | 60.19815 | 11.11098 | 682 ft | 17 kts | 287° |
| 2026-05-07 21:05 | 60.19848 | 11.10876 | 682 ft | 16 kts | 286° |
| 2026-05-07 21:06 | 60.19879 | 11.10662 | 683 ft | 16 kts | 286° |
| 2026-05-07 21:06 | 60.19908 | 11.10455 | 684 ft | 16 kts | 285° |
| 2026-05-07 21:06 | 60.19942 | 11.10218 | 679 ft | 18 kts | 284° |
| 2026-05-07 21:06 | 60.19972 | 11.09980 | 682 ft | 17 kts | 266° |
| 2026-05-07 21:07 | 60.19876 | 11.09867 | 682 ft | 17 kts | 196° |
| 2026-05-07 21:07 | 60.19838 | 11.09843 | 683 ft | 17 kts | 199° |